^^
Station Historical Data
Daily Summary for March 14, 2017 Units:  English    Metric   Both
« Previous Day
Next Day »
Daily Weekly Monthly Yearly Custom
  High: Low: Average:
Temperature: 28.8 °F 18.7 °F 25.5 °F
Dew Point: 27.5 °F 13.6 °F 23.4 °F
Humidity: 96% 78% 92%
Wind Speed: 13.0mph 0.0mph 3.5mph
Wind Gust: 29.0mph - -
Wind- - WSW
Pressure: 30.29 in 29.16 in -
Precipitation: 0.00 in    
Historical Graphs
 
 
Tabular Data for March 14, 2017
Time Temperature Dew Point Pressure Wind Wind Speed Wind Gust Humidity Rainfall Rate (Hourly) Conditions
00:00 27.2 °F 21.8 °F 30.29 in Calm   2.0 mph 80% 0.00 in -SN
00:15 27.4 °F 21.7 °F 30.29 in NNW 1.0 mph 2.0 mph 79% 0.00 in -SN
00:30 27.5 °F 21.8 °F 30.29 in Calm   1.0 mph 79% 0.00 in -SN
00:45 27.7 °F 21.7 °F 30.28 in Calm   1.0 mph 78% 0.00 in -SN
01:00 27.9 °F 21.9 °F 30.27 in Calm   1.0 mph 78% 0.00 in -SN
02:15 26.6 °F 22.7 °F 30.23 in Calm   6.0 mph 85% 0.00 in -SN
02:30 25.9 °F 22.8 °F 30.21 in Calm   3.0 mph 88% 0.00 in -SN
02:45 25.5 °F 22.7 °F 30.21 in Calm   3.0 mph 89% 0.00 in -SN
03:00 25.4 °F 22.9 °F 30.19 in Calm   2.0 mph 90% 0.00 in -SN
03:15 25.3 °F 23.1 °F 30.16 in NNE 1.0 mph 8.0 mph 91% 0.00 in -SN
03:30 25.2 °F 22.9 °F 30.14 in NNE 1.0 mph 5.0 mph 91% 0.00 in -SN
03:45 25.0 °F 23.0 °F 30.11 in Calm   5.0 mph 92% 0.00 in -SN
04:00 25.0 °F 23.0 °F 30.10 in North 1.0 mph 5.0 mph 92% 0.00 in -SN
04:15 24.9 °F 22.9 °F 30.09 in North 1.0 mph 9.0 mph 92% 0.00 in -SN
04:30 24.7 °F 23.0 °F 30.08 in Calm   9.0 mph 93% 0.00 in -SN
04:45 24.6 °F 22.9 °F 30.06 in North 1.0 mph 5.0 mph 93% 0.00 in -SN
05:00 24.6 °F 22.9 °F 30.03 in NE 2.0 mph 6.0 mph 93% 0.00 in -SN
05:15 24.7 °F 23.0 °F 30.02 in North 2.0 mph 8.0 mph 93% 0.00 in -SN
05:30 24.8 °F 23.1 °F 30.00 in NW 2.0 mph 7.0 mph 93% 0.00 in -SN
05:45 24.8 °F 23.1 °F 29.99 in Calm   8.0 mph 93% 0.00 in -SN
06:00 24.9 °F 23.2 °F 29.97 in NNE 2.0 mph 6.0 mph 93% 0.00 in -SN
06:15 25.1 °F 23.3 °F 29.96 in NNW 1.0 mph 20.0 mph 93% 0.00 in -SN
06:30 25.1 °F 23.4 °F 29.94 in North 1.0 mph 8.0 mph 93% 0.00 in -SN
06:45 25.3 °F 23.6 °F 29.92 in NE 1.0 mph 12.0 mph 93% 0.00 in -SN
07:00 25.5 °F 23.8 °F 29.90 in NE 2.0 mph 12.0 mph 93% 0.00 in -SN
07:15 25.8 °F 24.3 °F 29.88 in Calm   9.0 mph 94% 0.00 in -SN
07:30 26.0 °F 24.5 °F 29.86 in East 1.0 mph 12.0 mph 94% 0.00 in -SN
08:00 26.0 °F 24.3 °F 29.83 in East 1.0 mph 12.0 mph 93% 0.00 in -SN
08:15 26.0 °F 24.3 °F 29.82 in NNW 1.0 mph 12.0 mph 93% 0.00 in -SN
08:30 26.0 °F 24.2 °F 29.81 in North 2.0 mph 17.0 mph 93% 0.00 in -SN
08:45 25.8 °F 24.1 °F 29.80 in NNW 1.0 mph 10.0 mph 93% 0.00 in -SN
09:00 25.7 °F 24.0 °F 29.78 in NE 1.0 mph 6.0 mph 93% 0.00 in -SN
09:15 25.6 °F 24.1 °F 29.75 in NNE 1.0 mph 7.0 mph 94% 0.00 in +SN
09:30 25.4 °F 23.9 °F 29.71 in North 5.0 mph 12.0 mph 94% 0.00 in +SN
09:45 25.3 °F 23.8 °F 29.66 in NNW 5.0 mph 16.0 mph 94% 0.00 in +SN
10:00 25.3 °F 23.8 °F 29.62 in North 6.0 mph 16.0 mph 94% 0.00 in +SN
10:15 25.5 °F 24.0 °F 29.58 in NNW 3.0 mph 17.0 mph 94% 0.00 in -SN
10:30 25.7 °F 24.2 °F 29.55 in NNW 6.0 mph 16.0 mph 94% 0.00 in -SN
10:45 25.6 °F 24.1 °F 29.50 in NW 5.0 mph 20.0 mph 94% 0.00 in -SN
11:00 26.1 °F 24.6 °F 29.48 in NW 3.0 mph 20.0 mph 94% 0.00 in -SN
11:15 26.8 °F 25.3 °F 29.48 in NW 5.0 mph 16.0 mph 94% 0.00 in -SN
11:30 27.1 °F 25.6 °F 29.45 in North 7.0 mph 14.0 mph 94% 0.00 in -SN
11:45 27.5 °F 26.0 °F 29.43 in NNW 2.0 mph 14.0 mph 94% 0.00 in -SN
12:00 27.6 °F 26.1 °F 29.40 in North 3.0 mph 15.0 mph 94% 0.00 in -SN
12:15 27.8 °F 26.3 °F 29.37 in NNW 3.0 mph 20.0 mph 94% 0.00 in -SN
12:30 27.9 °F 26.4 °F 29.35 in North 5.0 mph 17.0 mph 94% 0.00 in -SN
12:45 28.3 °F 26.8 °F 29.33 in North 7.0 mph 14.0 mph 94% 0.00 in -SN
13:00 28.4 °F 26.9 °F 29.31 in North 9.0 mph 18.0 mph 94% 0.00 in -SN
13:15 28.6 °F 27.1 °F 29.29 in NNW 7.0 mph 20.0 mph 94% 0.00 in -SN
13:30 28.8 °F 27.5 °F 29.30 in North 5.0 mph 13.0 mph 95% 0.00 in -SN
13:45 26.9 °F 25.4 °F 29.25 in North 7.0 mph 17.0 mph 94% 0.00 in -SN
14:00 25.9 °F 24.5 °F 29.19 in North 3.0 mph 17.0 mph 94% 0.00 in -SN
14:15 27.8 °F 26.8 °F 29.21 in NW 7.0 mph 15.0 mph 96% 0.00 in -SN
14:30 25.7 °F 24.2 °F 29.19 in NNW 5.0 mph 20.0 mph 94% 0.00 in -SN
14:45 25.0 °F 23.5 °F 29.19 in North 7.0 mph 21.0 mph 94% 0.00 in -SN
15:00 25.0 °F 23.8 °F 29.18 in NNE 6.0 mph 27.0 mph 95% 0.00 in -SN
15:15 24.8 °F 23.6 °F 29.16 in NNW 7.0 mph 20.0 mph 95% 0.00 in -SN
15:30 24.8 °F 23.6 °F 29.18 in NNW 8.0 mph 20.0 mph 95% 0.00 in -SN
15:45 24.8 °F 23.6 °F 29.18 in North 10.0 mph 29.0 mph 95% 0.00 in -SN
16:00 25.0 °F 23.8 °F 29.20 in North 9.0 mph 28.0 mph 95% 0.00 in -SN
16:15 25.4 °F 24.2 °F 29.21 in NNW 8.0 mph 29.0 mph 95% 0.00 in -SN
16:30 25.5 °F 24.3 °F 29.21 in North 6.0 mph 22.0 mph 95% 0.00 in -SN
16:45 25.6 °F 24.4 °F 29.21 in NNW 13.0 mph 23.0 mph 95% 0.00 in -SN
17:00 25.7 °F 24.4 °F 29.23 in NNW 8.0 mph 26.0 mph 95% 0.00 in -SN
17:15 25.9 °F 24.7 °F 29.23 in NNW 8.0 mph 22.0 mph 95% 0.00 in -SN
17:30 26.5 °F 25.5 °F 29.25 in North 9.0 mph 21.0 mph 96% 0.00 in -SN
17:45 26.9 °F 25.9 °F 29.25 in NNW 7.0 mph 20.0 mph 96% 0.00 in -SN
18:00 27.1 °F 26.1 °F 29.26 in North 5.0 mph 13.0 mph 96% 0.00 in -SN
18:15 26.9 °F 26.0 °F 29.27 in NNW 2.0 mph 10.0 mph 96% 0.00 in -SN
18:30 27.3 °F 26.3 °F 29.28 in NW 5.0 mph 13.0 mph 96% 0.00 in -SN
18:45 27.5 °F 26.5 °F 29.30 in North 3.0 mph 12.0 mph 96% 0.00 in -SN
19:00 27.3 °F 26.3 °F 29.32 in WNW 5.0 mph 14.0 mph 96% 0.00 in -SN
19:15 27.1 °F 26.1 °F 29.34 in West 1.0 mph 13.0 mph 96% 0.00 in CLR
19:30 27.0 °F 26.0 °F 29.36 in West 3.0 mph 10.0 mph 96% 0.00 in CLR
19:45 26.9 °F 25.7 °F 29.35 in NNW 3.0 mph 10.0 mph 95% 0.00 in CLR
20:00 26.9 °F 25.7 °F 29.36 in NE 1.0 mph 11.0 mph 95% 0.00 in CLR
20:15 26.8 °F 25.6 °F 29.37 in NW 2.0 mph 10.0 mph 95% 0.00 in BKN
20:30 26.4 °F 24.9 °F 29.38 in WSW 1.0 mph 16.0 mph 94% 0.00 in BKN
20:45 26.0 °F 24.5 °F 29.41 in WSW 2.0 mph 12.0 mph 94% 0.00 in BKN
21:00 25.4 °F 23.7 °F 29.41 in WSW 5.0 mph 16.0 mph 93% 0.00 in BKN
21:15 24.5 °F 22.2 °F 29.43 in WSW 2.0 mph 14.0 mph 91% 0.00 in BKN
21:30 22.8 °F 20.3 °F 29.45 in WSW 6.0 mph 16.0 mph 90% 0.00 in BKN
21:45 22.2 °F 19.4 °F 29.47 in SW 3.0 mph 13.0 mph 89% 0.00 in BKN
22:00 21.6 °F 18.1 °F 29.47 in West 5.0 mph 20.0 mph 86% 0.00 in BKN
22:15 21.0 °F 17.2 °F 29.48 in NNE 3.0 mph 18.0 mph 85% 0.00 in OVC
22:30 20.4 °F 16.3 °F 29.49 in NNW 5.0 mph 15.0 mph 84% 0.00 in OVC
22:45 20.0 °F 15.7 °F 29.49 in WSW 3.0 mph 15.0 mph 83% 0.00 in OVC
23:00 19.7 °F 14.5 °F 29.50 in West 5.0 mph 20.0 mph 80% 0.00 in OVC
23:15 19.4 °F 14.2 °F 29.50 in SW 2.0 mph 13.0 mph 80% 0.00 in SCT
23:30 18.9 °F 13.7 °F 29.50 in NNW 2.0 mph 13.0 mph 80% 0.00 in SCT
23:45 18.7 °F 13.6 °F 29.51 in WNW 3.0 mph 12.0 mph 80% 0.00 in SCT
TarryTown NY Weather
Compliments of Weather Underground - 1.5 mb